Time;durP1;ratioP1;P1;durP2;ratioP2;P2;SDS_P1;SDS_P2;PMS_P1;PMS_P2;Temp;Humidity;BMP_temperature;BMP_pressure;BME280_temperature;BME280_humidity;BME280_pressure;Samples;Min_cycle;Max_cycle;Signal;HPM_P1;HPM_P2
2022/12/05 00:02:16;;;;;;;13.90;9.85;;;;;;;;;;5125665;28;20016;-78
2022/12/05 00:05:02;;;;;;;15.30;10.18;;;;;;;;;;5131786;28;20016;-78
2022/12/05 00:07:47;;;;;;;16.27;10.55;;;;;;;;;;5116265;28;20019;-79
2022/12/05 00:10:36;;;;;;;17.50;10.95;;;;;;;;;;5131639;28;20019;-80
2022/12/05 00:13:22;;;;;;;19.13;12.20;;;;;;;;;;5135158;28;20023;-79
2022/12/05 00:16:09;;;;;;;20.42;12.23;;;;;;;;;;5130765;28;20027;-79
2022/12/05 00:18:55;;;;;;;22.25;13.20;;;;;;;;;;5132289;28;20058;-79
2022/12/05 00:21:41;;;;;;;20.38;11.80;;;;;;;;;;5121178;28;20020;-79
2022/12/05 00:24:26;;;;;;;16.80;11.25;;;;;;;;;;5122466;28;20076;-79
2022/12/05 00:27:12;;;;;;;15.35;10.18;;;;;;;;;;5125622;28;20016;-79
2022/12/05 00:29:57;;;;;;;18.88;11.63;;;;;;;;;;5126673;28;20016;-79
2022/12/05 00:32:43;;;;;;;18.42;11.07;;;;;;;;;;5126151;28;20099;-79
2022/12/05 00:35:29;;;;;;;17.45;11.35;;;;;;;;;;5120464;28;20073;-80
2022/12/05 00:38:14;;;;;;;17.77;11.13;;;;;;;;;;5120505;28;20048;-79
2022/12/05 00:41:07;;;;;;;19.95;11.15;;;;;;;;;;5103636;28;20046;-79
2022/12/05 00:43:54;;;;;;;19.88;11.07;;;;;;;;;;5119818;28;20016;-80
2022/12/05 00:46:39;;;;;;;15.38;9.70;;;;;;;;;;5120574;28;20024;-79
2022/12/05 00:49:25;;;;;;;18.27;11.43;;;;;;;;;;5121331;28;20020;-78
2022/12/05 00:52:10;;;;;;;19.48;10.82;;;;;;;;;;5121059;28;20448;-79
2022/12/05 00:54:56;;;;;;;16.92;11.02;;;;;;;;;;5121754;28;20047;-80
2022/12/05 00:57:42;;;;;;;17.42;10.55;;;;;;;;;;5106136;28;20034;-79
2022/12/05 01:00:27;;;;;;;15.00;10.13;;;;;;;;;;5119689;28;20024;-79
2022/12/05 01:03:13;;;;;;;17.95;10.65;;;;;;;;;;5119514;28;20016;-79
2022/12/05 01:05:58;;;;;;;14.50;9.65;;;;;;;;;;5102921;28;20070;-80
2022/12/05 01:08:44;;;;;;;13.98;9.23;;;;;;;;;;5107681;28;20019;-81
2022/12/05 01:11:29;;;;;;;13.27;8.70;;;;;;;;;;5132542;28;20022;-78
2022/12/05 01:14:16;;;;;;;12.88;7.50;;;;;;;;;;5134320;28;20053;-79
2022/12/05 01:17:01;;;;;;;11.73;8.32;;;;;;;;;;5133014;28;20458;-79
2022/12/05 01:19:47;;;;;;;13.48;8.30;;;;;;;;;;5134588;28;20031;-79
2022/12/05 01:22:33;;;;;;;13.70;8.38;;;;;;;;;;5133736;28;20047;-79
2022/12/05 01:25:18;;;;;;;11.07;7.68;;;;;;;;;;5135109;28;20015;-79
2022/12/05 01:28:04;;;;;;;11.98;8.05;;;;;;;;;;5132829;28;20039;-80
2022/12/05 01:30:49;;;;;;;13.15;8.57;;;;;;;;;;5110359;28;20024;-79
2022/12/05 01:33:35;;;;;;;10.43;7.60;;;;;;;;;;5118765;28;20103;-81
2022/12/05 01:36:21;;;;;;;13.35;9.13;;;;;;;;;;5118103;28;20466;-80
2022/12/05 01:39:08;;;;;;;14.27;8.98;;;;;;;;;;5114476;28;20020;-80
2022/12/05 01:41:53;;;;;;;13.25;8.70;;;;;;;;;;5108326;28;20020;-80
2022/12/05 01:44:42;;;;;;;15.40;9.80;;;;;;;;;;5122029;28;20455;-81
2022/12/05 01:47:28;;;;;;;16.27;9.38;;;;;;;;;;5117749;28;20505;-78
2022/12/05 01:50:13;;;;;;;12.52;8.85;;;;;;;;;;5116700;28;20028;-79
2022/12/05 01:52:59;;;;;;;14.02;9.38;;;;;;;;;;5103987;28;20031;-80
2022/12/05 01:55:46;;;;;;;15.43;9.70;;;;;;;;;;5102884;28;20141;-79
2022/12/05 01:58:38;;;;;;;15.25;8.90;;;;;;;;;;5116991;28;20085;-80
2022/12/05 02:01:23;;;;;;;14.57;9.57;;;;;;;;;;5116535;28;20015;-80
2022/12/05 02:04:09;;;;;;;14.35;9.18;;;;;;;;;;5102402;28;20015;-79
2022/12/05 02:06:54;;;;;;;17.52;10.23;;;;;;;;;;5117382;28;20061;-79
2022/12/05 02:09:40;;;;;;;14.68;9.40;;;;;;;;;;5101071;28;20026;-79
2022/12/05 02:12:26;;;;;;;14.23;8.98;;;;;;;;;;5116862;28;20088;-80
2022/12/05 02:15:14;;;;;;;15.68;9.55;;;;;;;;;;5116056;28;20352;-78
2022/12/05 02:18:00;;;;;;;13.30;9.07;;;;;;;;;;5115422;28;20501;-79
2022/12/05 02:21:04;;;;;;;15.15;10.10;;;;;;;;;;5115554;28;20020;-78
2022/12/05 02:23:49;;;;;;;16.30;10.13;;;;;;;;;;5101894;28;20144;-79
2022/12/05 02:26:53;;;;;;;17.17;11.10;;;;;;;;;;5115844;28;20090;-79
2022/12/05 02:29:39;;;;;;;19.17;10.27;;;;;;;;;;5116352;28;20057;-78
2022/12/05 02:33:03;;;;;;;17.02;10.18;;;;;;;;;;5115701;28;20023;-78
2022/12/05 02:35:49;;;;;;;17.38;10.23;;;;;;;;;;5015680;28;20462;-78
2022/12/05 02:38:34;;;;;;;17.63;10.30;;;;;;;;;;5013975;28;20034;-79
2022/12/05 02:41:23;;;;;;;19.88;11.50;;;;;;;;;;5086824;28;20114;-79
2022/12/05 02:44:22;;;;;;;19.90;10.60;;;;;;;;;;5115878;28;20016;-79
2022/12/05 02:47:08;;;;;;;18.40;10.77;;;;;;;;;;5116026;28;20099;-78
2022/12/05 02:49:55;;;;;;;19.75;10.35;;;;;;;;;;5101554;28;20034;-78
2022/12/05 02:52:41;;;;;;;17.60;10.00;;;;;;;;;;5116122;28;20027;-78
2022/12/05 02:55:29;;;;;;;18.67;10.20;;;;;;;;;;5116116;28;20016;-78
2022/12/05 02:58:18;;;;;;;18.65;9.13;;;;;;;;;;5116024;28;20028;-79
2022/12/05 03:01:03;;;;;;;17.02;10.02;;;;;;;;;;5115486;28;20043;-79
2022/12/05 03:03:49;;;;;;;15.68;9.77;;;;;;;;;;5101390;28;20027;-78
2022/12/05 03:06:40;;;;;;;15.52;9.05;;;;;;;;;;5115085;28;20358;-79
2022/12/05 03:09:30;;;;;;;17.38;9.82;;;;;;;;;;5115224;28;20028;-79
2022/12/05 03:12:24;;;;;;;16.42;10.07;;;;;;;;;;5115972;28;20132;-79
2022/12/05 03:15:10;;;;;;;19.15;9.50;;;;;;;;;;5115699;28;20019;-80
2022/12/05 03:17:58;;;;;;;16.92;10.13;;;;;;;;;;5100258;28;20084;-79
2022/12/05 03:20:44;;;;;;;19.73;10.68;;;;;;;;;;5100722;28;20448;-79
2022/12/05 03:23:32;;;;;;;18.40;10.88;;;;;;;;;;5100259;28;20020;-79
2022/12/05 03:26:24;;;;;;;18.23;10.20;;;;;;;;;;5116166;28;20030;-79
2022/12/05 03:29:18;;;;;;;18.95;10.55;;;;;;;;;;5114536;28;20034;-79
2022/12/05 03:32:09;;;;;;;18.95;10.88;;;;;;;;;;5114729;28;20363;-79
2022/12/05 03:35:04;;;;;;;18.50;11.32;;;;;;;;;;5114672;28;20024;-79
2022/12/05 03:37:52;;;;;;;18.92;11.13;;;;;;;;;;5114764;28;20372;-79
2022/12/05 03:40:49;;;;;;;21.25;11.63;;;;;;;;;;5114514;28;20043;-79
2022/12/05 03:43:44;;;;;;;18.85;11.65;;;;;;;;;;5100547;28;20027;-80
2022/12/05 03:46:32;;;;;;;21.45;12.13;;;;;;;;;;5099667;28;20023;-79
2022/12/05 03:49:18;;;;;;;27.55;10.75;;;;;;;;;;5114258;28;20015;-78
2022/12/05 03:52:09;;;;;;;18.15;9.60;;;;;;;;;;5100379;28;20432;-79
2022/12/05 03:54:56;;;;;;;19.17;10.48;;;;;;;;;;5114986;28;20464;-79
2022/12/05 03:57:54;;;;;;;17.67;10.18;;;;;;;;;;5115678;28;20034;-77
2022/12/05 04:00:41;;;;;;;19.08;10.32;;;;;;;;;;5115098;28;20460;-79
2022/12/05 04:03:38;;;;;;;17.00;9.63;;;;;;;;;;5114713;28;20023;-79
2022/12/05 04:06:26;;;;;;;18.52;10.07;;;;;;;;;;5116386;28;20024;-79
2022/12/05 04:09:19;;;;;;;15.65;9.57;;;;;;;;;;5114896;28;20016;-79
2022/12/05 04:12:06;;;;;;;16.38;10.55;;;;;;;;;;5100843;28;20019;-79
2022/12/05 04:14:54;;;;;;;15.52;10.20;;;;;;;;;;5114436;28;20028;-79
2022/12/05 04:17:46;;;;;;;15.85;9.75;;;;;;;;;;5114273;28;20016;-78
2022/12/05 04:23:40;;;;;;;14.32;9.85;;;;;;;;;;5114625;28;20090;-78
2022/12/05 04:26:30;;;;;;;16.65;10.05;;;;;;;;;;5115230;28;20038;-80
2022/12/05 04:29:24;;;;;;;17.95;11.63;;;;;;;;;;5115018;28;20397;-79
2022/12/05 04:32:11;;;;;;;16.02;10.05;;;;;;;;;;5114253;28;20471;-78
2022/12/05 04:34:59;;;;;;;18.88;11.10;;;;;;;;;;5115175;28;20073;-78
2022/12/05 04:37:47;;;;;;;19.70;11.23;;;;;;;;;;5097918;28;20077;-79
2022/12/05 04:40:36;;;;;;;18.65;11.65;;;;;;;;;;5100700;28;20023;-78
2022/12/05 04:43:23;;;;;;;19.65;12.93;;;;;;;;;;5118780;28;20023;-78
2022/12/05 04:46:11;;;;;;;25.02;13.05;;;;;;;;;;5117977;28;20081;-77
2022/12/05 04:48:59;;;;;;;24.35;13.23;;;;;;;;;;5119235;28;20425;-78
2022/12/05 04:51:46;;;;;;;21.08;12.48;;;;;;;;;;5117800;28;20019;-78
2022/12/05 04:54:36;;;;;;;21.90;12.35;;;;;;;;;;5102619;28;20428;-77
2022/12/05 04:57:24;;;;;;;22.13;13.13;;;;;;;;;;5102879;28;20023;-79
2022/12/05 05:00:10;;;;;;;21.90;12.32;;;;;;;;;;5117262;28;20051;-78
2022/12/05 05:02:55;;;;;;;21.90;12.32;;;;;;;;;;5118412;28;20041;-78
2022/12/05 05:05:43;;;;;;;21.48;12.70;;;;;;;;;;5117853;28;20436;-79
2022/12/05 05:08:29;;;;;;;21.45;12.98;;;;;;;;;;5117774;28;20035;-77
2022/12/05 05:11:17;;;;;;;20.70;12.70;;;;;;;;;;5102854;28;20106;-78
2022/12/05 05:14:02;;;;;;;18.08;11.10;;;;;;;;;;5117313;28;20016;-78
2022/12/05 05:16:48;;;;;;;19.77;12.55;;;;;;;;;;5102212;28;20019;-79
2022/12/05 05:19:33;;;;;;;22.52;12.65;;;;;;;;;;5118405;28;20440;-78
2022/12/05 05:22:19;;;;;;;20.88;11.85;;;;;;;;;;5107694;28;20038;-76
2022/12/05 05:25:05;;;;;;;20.17;12.20;;;;;;;;;;5133839;28;20015;-77
2022/12/05 05:27:52;;;;;;;19.98;11.65;;;;;;;;;;5121660;28;20020;-78
2022/12/05 05:30:37;;;;;;;20.70;11.45;;;;;;;;;;5117756;28;20047;-78
2022/12/05 05:33:23;;;;;;;19.65;11.50;;;;;;;;;;5118117;28;20057;-77
2022/12/05 05:36:12;;;;;;;17.92;11.80;;;;;;;;;;5117781;28;20109;-78
2022/12/05 05:38:59;;;;;;;18.98;12.02;;;;;;;;;;5101340;28;20016;-78
2022/12/05 05:41:45;;;;;;;19.48;12.05;;;;;;;;;;5101526;28;20666;-78
2022/12/05 05:44:30;;;;;;;18.42;11.43;;;;;;;;;;5117732;28;20024;-78
2022/12/05 05:47:16;;;;;;;16.15;10.30;;;;;;;;;;5117898;28;20023;-76
2022/12/05 05:50:02;;;;;;;17.65;10.93;;;;;;;;;;5131679;28;20019;-78
2022/12/05 05:52:47;;;;;;;17.95;10.23;;;;;;;;;;5117027;28;20126;-78
2022/12/05 05:55:33;;;;;;;18.90;10.18;;;;;;;;;;5116809;28;20034;-77
2022/12/05 05:58:18;;;;;;;15.85;10.27;;;;;;;;;;5101277;28;20023;-78
2022/12/05 06:01:04;;;;;;;15.77;9.85;;;;;;;;;;5116503;28;20016;-77
2022/12/05 06:03:50;;;;;;;16.33;9.75;;;;;;;;;;5117143;28;20051;-79
2022/12/05 06:06:35;;;;;;;14.93;9.70;;;;;;;;;;5101306;28;20015;-72
2022/12/05 06:09:21;;;;;;;15.93;9.30;;;;;;;;;;5115975;28;20020;-73
2022/12/05 06:12:06;;;;;;;15.35;9.73;;;;;;;;;;5095335;28;20032;-73
2022/12/05 06:14:52;;;;;;;16.50;10.38;;;;;;;;;;5116862;28;20027;-73
2022/12/05 06:17:38;;;;;;;18.23;12.23;;;;;;;;;;5101006;28;20515;-74
2022/12/05 06:20:23;;;;;;;21.20;12.63;;;;;;;;;;5100468;28;20102;-76
2022/12/05 06:23:09;;;;;;;19.38;11.93;;;;;;;;;;5095305;28;20100;-76
2022/12/05 06:25:55;;;;;;;19.83;12.48;;;;;;;;;;5101627;28;20356;-76
2022/12/05 06:28:41;;;;;;;16.80;10.48;;;;;;;;;;5116676;28;20030;-76
2022/12/05 06:31:29;;;;;;;17.83;11.73;;;;;;;;;;5101136;28;20102;-76
2022/12/05 06:34:16;;;;;;;22.25;12.65;;;;;;;;;;5102358;28;20023;-76
2022/12/05 06:37:01;;;;;;;19.38;12.45;;;;;;;;;;5116329;28;20460;-76
2022/12/05 06:39:47;;;;;;;21.73;13.35;;;;;;;;;;5115819;28;20054;-76
2022/12/05 06:42:32;;;;;;;22.17;14.18;;;;;;;;;;5116747;28;20020;-76
2022/12/05 06:45:18;;;;;;;25.10;14.00;;;;;;;;;;5115714;28;20043;-75
2022/12/05 06:48:04;;;;;;;23.08;14.20;;;;;;;;;;5101233;28;20023;-76
2022/12/05 06:50:50;;;;;;;23.73;14.45;;;;;;;;;;5115863;28;20106;-77
2022/12/05 06:53:35;;;;;;;24.90;15.07;;;;;;;;;;5101159;28;20469;-76
2022/12/05 06:56:21;;;;;;;21.73;14.05;;;;;;;;;;5100632;28;20020;-77
2022/12/05 06:59:06;;;;;;;23.13;14.82;;;;;;;;;;5115888;28;20459;-76
2022/12/05 07:01:52;;;;;;;25.58;16.13;;;;;;;;;;5115716;28;20508;-76
2022/12/05 07:04:38;;;;;;;22.63;14.23;;;;;;;;;;5100496;28;20015;-77
2022/12/05 07:07:23;;;;;;;23.05;14.85;;;;;;;;;;5115141;28;20051;-77
2022/12/05 07:10:09;;;;;;;24.10;15.23;;;;;;;;;;5114887;28;20023;-75
2022/12/05 07:12:55;;;;;;;23.45;14.82;;;;;;;;;;5115127;28;20026;-77
2022/12/05 07:15:40;;;;;;;27.38;14.45;;;;;;;;;;5115401;28;20024;-74
2022/12/05 07:18:26;;;;;;;26.42;16.52;;;;;;;;;;5114563;28;20024;-73
2022/12/05 07:21:13;;;;;;;27.13;15.25;;;;;;;;;;5100999;28;20012;-75
2022/12/05 07:23:59;;;;;;;30.13;18.10;;;;;;;;;;5099858;28;20413;-74
2022/12/05 07:26:44;;;;;;;30.80;19.20;;;;;;;;;;5114645;28;20034;-75
2022/12/05 07:29:30;;;;;;;27.40;17.35;;;;;;;;;;5114943;28;20026;-76
2022/12/05 07:32:15;;;;;;;24.63;15.10;;;;;;;;;;5115749;28;20175;-75
2022/12/05 07:35:01;;;;;;;23.67;14.60;;;;;;;;;;5114614;28;20033;-75
2022/12/05 07:37:46;;;;;;;24.08;14.30;;;;;;;;;;5100396;28;20379;-75
2022/12/05 07:40:32;;;;;;;24.45;15.23;;;;;;;;;;5115033;28;20072;-74
2022/12/05 07:43:18;;;;;;;28.35;15.80;;;;;;;;;;5099773;28;20034;-75
2022/12/05 07:46:05;;;;;;;29.65;16.85;;;;;;;;;;5100395;28;20039;-75
2022/12/05 07:48:51;;;;;;;28.50;17.02;;;;;;;;;;5114223;28;20035;-74
2022/12/05 07:51:37;;;;;;;27.13;17.27;;;;;;;;;;5114896;28;20084;-74
2022/12/05 07:54:23;;;;;;;27.75;16.23;;;;;;;;;;5114268;28;20028;-74
2022/12/05 07:57:08;;;;;;;29.02;16.95;;;;;;;;;;5099905;28;20012;-74
2022/12/05 07:59:54;;;;;;;27.63;15.80;;;;;;;;;;5113727;28;20353;-73
2022/12/05 08:02:39;;;;;;;28.63;16.65;;;;;;;;;;5114021;28;20020;-74
2022/12/05 08:05:25;;;;;;;28.27;16.00;;;;;;;;;;5114425;28;20019;-75
2022/12/05 08:08:11;;;;;;;30.17;17.45;;;;;;;;;;5114360;28;20019;-75
2022/12/05 08:11:01;;;;;;;32.47;17.52;;;;;;;;;;5114327;28;20028;-74
2022/12/05 08:13:47;;;;;;;25.23;15.00;;;;;;;;;;5100916;28;20051;-74
2022/12/05 08:16:33;;;;;;;23.80;14.20;;;;;;;;;;5118734;28;20055;-74
2022/12/05 08:19:18;;;;;;;21.30;13.18;;;;;;;;;;5118352;28;20030;-74
2022/12/05 08:22:04;;;;;;;32.38;17.08;;;;;;;;;;5117599;28;20028;-75
2022/12/05 08:24:49;;;;;;;50.88;28.92;;;;;;;;;;5118285;28;20023;-73
2022/12/05 08:27:35;;;;;;;26.73;15.00;;;;;;;;;;5118105;28;20023;-74
2022/12/05 08:30:21;;;;;;;24.52;13.65;;;;;;;;;;5103380;28;20020;-74
2022/12/05 08:33:06;;;;;;;22.88;12.75;;;;;;;;;;5117316;28;20027;-74
2022/12/05 08:35:52;;;;;;;21.65;11.25;;;;;;;;;;5117296;28;20108;-74
2022/12/05 08:38:38;;;;;;;19.20;11.35;;;;;;;;;;5102840;28;20365;-75
2022/12/05 08:41:28;;;;;;;19.02;11.00;;;;;;;;;;5118013;28;20039;-74
2022/12/05 08:44:17;;;;;;;20.25;11.38;;;;;;;;;;5104993;28;20107;-75
2022/12/05 08:47:02;;;;;;;17.38;10.23;;;;;;;;;;5104253;28;20019;-75
2022/12/05 08:49:48;;;;;;;15.48;9.85;;;;;;;;;;5118564;28;20038;-73
2022/12/05 08:52:34;;;;;;;19.67;11.07;;;;;;;;;;5102744;28;20016;-74
2022/12/05 08:55:19;;;;;;;19.33;11.00;;;;;;;;;;5117052;28;20019;-74
2022/12/05 08:58:05;;;;;;;19.05;10.02;;;;;;;;;;5116910;28;20379;-74
2022/12/05 09:00:50;;;;;;;15.98;9.65;;;;;;;;;;5103583;28;20059;-75
2022/12/05 09:03:36;;;;;;;17.83;9.77;;;;;;;;;;5103363;28;20451;-75
2022/12/05 09:06:23;;;;;;;16.58;9.65;;;;;;;;;;5116802;28;20085;-74
2022/12/05 09:09:10;;;;;;;16.58;10.00;;;;;;;;;;5102322;28;20481;-75
2022/12/05 09:11:56;;;;;;;14.38;8.45;;;;;;;;;;5117235;28;20023;-74
2022/12/05 09:14:42;;;;;;;13.07;8.20;;;;;;;;;;5117847;28;20020;-74
2022/12/05 09:17:27;;;;;;;16.55;10.02;;;;;;;;;;5102627;28;20027;-74
2022/12/05 09:20:13;;;;;;;17.45;10.30;;;;;;;;;;5102669;28;20030;-79
2022/12/05 09:22:59;;;;;;;16.90;10.70;;;;;;;;;;5116513;28;20047;-73
2022/12/05 09:25:51;;;;;;;20.75;10.50;;;;;;;;;;5102105;28;20030;-74
2022/12/05 09:28:37;;;;;;;22.08;10.38;;;;;;;;;;5116458;28;20034;-74
2022/12/05 09:31:24;;;;;;;18.90;10.68;;;;;;;;;;5117054;28;20063;-73
2022/12/05 09:34:10;;;;;;;20.75;10.82;;;;;;;;;;5101747;28;20106;-74
2022/12/05 09:36:56;;;;;;;18.00;10.38;;;;;;;;;;5116817;28;20112;-72
2022/12/05 09:39:43;;;;;;;17.90;10.65;;;;;;;;;;5116301;28;20455;-73
2022/12/05 09:42:28;;;;;;;19.77;11.50;;;;;;;;;;5116749;28;20041;-73
2022/12/05 09:45:17;;;;;;;23.52;11.95;;;;;;;;;;5117084;28;20352;-75
2022/12/05 09:48:09;;;;;;;21.45;12.23;;;;;;;;;;5116141;28;20156;-73
2022/12/05 09:50:59;;;;;;;26.63;13.25;;;;;;;;;;5102806;28;20027;-73
2022/12/05 09:53:45;;;;;;;24.10;12.82;;;;;;;;;;5107536;28;20110;-73
2022/12/05 09:56:30;;;;;;;17.77;11.75;;;;;;;;;;5117064;28;20028;-74
2022/12/05 09:59:16;;;;;;;21.08;12.20;;;;;;;;;;5116057;28;20064;-74
2022/12/05 10:02:10;;;;;;;22.10;12.23;;;;;;;;;;5117321;28;20043;-74
2022/12/05 10:05:03;;;;;;;23.30;12.55;;;;;;;;;;5101091;28;20023;-74
2022/12/05 10:08:01;;;;;;;35.53;19.05;;;;;;;;;;5116858;28;20444;-73
2022/12/05 10:10:46;;;;;;;20.77;12.85;;;;;;;;;;5101335;28;20027;-74
2022/12/05 10:13:38;;;;;;;23.98;13.48;;;;;;;;;;5115389;28;20039;-74
2022/12/05 10:16:35;;;;;;;19.40;11.85;;;;;;;;;;5115616;28;20024;-74
2022/12/05 10:19:30;;;;;;;21.00;12.45;;;;;;;;;;5116142;28;20023;-74
2022/12/05 10:22:19;;;;;;;21.45;11.68;;;;;;;;;;5100454;28;20019;-74
2022/12/05 10:25:05;;;;;;;20.45;11.85;;;;;;;;;;5116061;28;20023;-74
2022/12/05 10:27:52;;;;;;;23.63;12.50;;;;;;;;;;5100946;28;20026;-72
2022/12/05 10:30:39;;;;;;;24.92;13.65;;;;;;;;;;5115515;28;20084;-73
2022/12/05 10:33:27;;;;;;;19.88;12.05;;;;;;;;;;5116245;28;20120;-74
2022/12/05 10:36:13;;;;;;;22.02;12.65;;;;;;;;;;5101018;28;20019;-74
2022/12/05 10:38:59;;;;;;;25.27;13.55;;;;;;;;;;5117264;28;20016;-75
2022/12/05 10:41:44;;;;;;;24.83;13.30;;;;;;;;;;5101029;28;20020;-74
2022/12/05 10:44:31;;;;;;;23.38;12.30;;;;;;;;;;5115821;28;20398;-75
2022/12/05 10:47:16;;;;;;;22.38;12.63;;;;;;;;;;5114747;28;20031;-75
2022/12/05 10:50:15;;;;;;;22.13;12.57;;;;;;;;;;5115873;28;20341;-75
2022/12/05 10:53:02;;;;;;;22.25;13.32;;;;;;;;;;5114587;28;20019;-74
2022/12/05 10:55:50;;;;;;;24.58;12.25;;;;;;;;;;5115640;28;20027;-74
2022/12/05 10:58:35;;;;;;;19.40;11.15;;;;;;;;;;5115289;28;20023;-75
2022/12/05 11:01:21;;;;;;;19.67;11.52;;;;;;;;;;5115297;28;20076;-74
2022/12/05 11:04:27;;;;;;;24.38;12.57;;;;;;;;;;5116205;28;20450;-75
2022/12/05 11:07:30;;;;;;;27.05;13.65;;;;;;;;;;5099802;28;20015;-74
2022/12/05 11:10:24;;;;;;;24.95;13.35;;;;;;;;;;5114177;28;20023;-74
2022/12/05 11:13:14;;;;;;;22.63;13.20;;;;;;;;;;5114763;28;20018;-75
2022/12/05 11:16:00;;;;;;;25.30;13.05;;;;;;;;;;5100580;28;20103;-75
2022/12/05 11:18:48;;;;;;;22.65;13.38;;;;;;;;;;5114729;28;20035;-75
2022/12/05 11:21:40;;;;;;;22.05;13.57;;;;;;;;;;5114667;28;20144;-75
2022/12/05 11:24:38;;;;;;;22.17;12.13;;;;;;;;;;5100305;28;20035;-75
2022/12/05 11:27:28;;;;;;;58.05;33.47;;;;;;;;;;5114827;28;20107;-74
2022/12/05 11:30:17;;;;;;;20.77;12.45;;;;;;;;;;5115048;28;20092;-75
2022/12/05 11:33:29;;;;;;;19.45;11.77;;;;;;;;;;5099939;28;20024;-75
2022/12/05 11:36:19;;;;;;;25.17;12.80;;;;;;;;;;5114520;28;20051;-75
2022/12/05 11:39:04;;;;;;;23.67;12.73;;;;;;;;;;5115019;28;20114;-75
2022/12/05 11:41:53;;;;;;;20.75;11.95;;;;;;;;;;5099739;28;20015;-73
2022/12/05 11:44:57;;;;;;;20.85;12.90;;;;;;;;;;5114935;28;20028;-74
2022/12/05 11:47:49;;;;;;;24.15;15.10;;;;;;;;;;5114524;28;20016;-74
2022/12/05 11:50:39;;;;;;;17.25;11.98;;;;;;;;;;5099778;28;20356;-76
2022/12/05 11:53:27;;;;;;;34.10;22.73;;;;;;;;;;5114635;28;20023;-75
2022/12/05 11:56:35;;;;;;;25.50;15.20;;;;;;;;;;5114412;28;20098;-75
2022/12/05 11:59:33;;;;;;;22.75;13.30;;;;;;;;;;5114892;28;20015;-76
2022/12/05 12:02:18;;;;;;;22.55;13.07;;;;;;;;;;5099419;28;20484;-76
2022/12/05 12:05:24;;;;;;;21.27;13.00;;;;;;;;;;5099958;28;20077;-76
2022/12/05 12:08:10;;;;;;;22.58;12.23;;;;;;;;;;5077696;28;20042;-75
2022/12/05 12:11:05;;;;;;;22.75;12.73;;;;;;;;;;5114272;28;20030;-81
2022/12/05 12:13:51;;;;;;;20.48;11.75;;;;;;;;;;5099452;28;20026;-76
2022/12/05 12:16:39;;;;;;;19.52;11.60;;;;;;;;;;5114002;28;20031;-76
2022/12/05 12:19:42;;;;;;;25.13;13.18;;;;;;;;;;5113362;28;20042;-77
2022/12/05 12:22:37;;;;;;;26.67;12.93;;;;;;;;;;5098725;28;20020;-76
2022/12/05 12:25:32;;;;;;;20.63;12.35;;;;;;;;;;5099633;28;20027;-75
2022/12/05 12:28:28;;;;;;;25.33;13.30;;;;;;;;;;5114712;28;20042;-75
2022/12/05 12:31:13;;;;;;;21.23;12.35;;;;;;;;;;5099934;28;20027;-76
2022/12/05 12:34:17;;;;;;;25.33;12.75;;;;;;;;;;5114110;28;20050;-76
2022/12/05 12:37:19;;;;;;;23.40;12.77;;;;;;;;;;5099657;28;20047;-75
2022/12/05 12:40:19;;;;;;;20.88;12.10;;;;;;;;;;5099102;28;20107;-76
2022/12/05 12:43:14;;;;;;;22.52;12.75;;;;;;;;;;5113900;28;20106;-77
2022/12/05 12:45:59;;;;;;;23.95;14.30;;;;;;;;;;5114377;28;20012;-76
2022/12/05 12:49:03;;;;;;;23.70;13.93;;;;;;;;;;5113744;28;20026;-76
2022/12/05 12:52:00;;;;;;;24.35;14.25;;;;;;;;;;5100241;28;20031;-76
2022/12/05 12:54:49;;;;;;;28.85;15.15;;;;;;;;;;5113872;28;20023;-76
2022/12/05 12:57:34;;;;;;;28.55;14.65;;;;;;;;;;5113963;28;20023;-76
2022/12/05 13:00:20;;;;;;;33.63;16.80;;;;;;;;;;5113378;28;20045;-78
2022/12/05 13:03:15;;;;;;;28.00;16.13;;;;;;;;;;5102238;28;20011;-76
2022/12/05 13:06:06;;;;;;;27.55;15.48;;;;;;;;;;5117087;28;20031;-76
2022/12/05 13:09:01;;;;;;;25.42;14.68;;;;;;;;;;5117750;28;20139;-75
2022/12/05 13:11:47;;;;;;;20.80;13.23;;;;;;;;;;5103133;28;20447;-75
2022/12/05 13:14:33;;;;;;;23.88;13.80;;;;;;;;;;5117728;28;20043;-75
2022/12/05 13:17:20;;;;;;;23.55;13.98;;;;;;;;;;5103593;28;20023;-75
2022/12/05 13:20:12;;;;;;;21.50;13.52;;;;;;;;;;5095988;28;20370;-76
2022/12/05 13:22:58;;;;;;;21.95;13.45;;;;;;;;;;5118524;28;20026;-74
2022/12/05 13:25:45;;;;;;;24.15;15.52;;;;;;;;;;5103999;28;20023;-75
2022/12/05 13:28:33;;;;;;;22.92;14.80;;;;;;;;;;5117281;28;20012;-74
2022/12/05 13:31:32;;;;;;;24.42;14.18;;;;;;;;;;5119301;28;20008;-74
2022/12/05 13:34:30;;;;;;;25.85;15.07;;;;;;;;;;5118994;28;20047;-75
2022/12/05 13:43:31;;;;;;;24.40;14.88;;;;;;;;;;5117508;28;20098;-77
2022/12/05 13:46:43;;;;;;;26.23;14.00;;;;;;;;;;5101754;28;20107;-76
2022/12/05 13:49:49;;;;;;;22.17;14.23;;;;;;;;;;5114143;28;20022;-75
2022/12/05 13:52:40;;;;;;;21.88;14.05;;;;;;;;;;5077872;28;20078;-74
2022/12/05 13:55:27;;;;;;;23.80;14.02;;;;;;;;;;5115900;28;20027;-75
2022/12/05 13:58:19;;;;;;;22.05;14.27;;;;;;;;;;5116425;28;20391;-74
2022/12/05 14:01:38;;;;;;;28.33;15.63;;;;;;;;;;5102358;28;20486;-75
2022/12/05 14:04:42;;;;;;;23.60;14.95;;;;;;;;;;5074800;28;20088;-74
2022/12/05 14:07:46;;;;;;;27.00;16.08;;;;;;;;;;5116781;28;20020;-74
2022/12/05 14:10:35;;;;;;;25.73;16.10;;;;;;;;;;5116816;28;20031;-75
2022/12/05 14:13:20;;;;;;;25.70;15.98;;;;;;;;;;5101672;28;20080;-75
2022/12/05 14:16:24;;;;;;;24.67;16.10;;;;;;;;;;5115978;28;20413;-75
2022/12/05 14:19:25;;;;;;;27.88;16.98;;;;;;;;;;5117274;28;20355;-75
2022/12/05 14:22:17;;;;;;;26.98;16.67;;;;;;;;;;5115477;28;20020;-75
2022/12/05 14:25:09;;;;;;;31.92;18.52;;;;;;;;;;5115760;28;20098;-75
2022/12/05 14:28:00;;;;;;;30.63;17.75;;;;;;;;;;5116063;28;20118;-74
2022/12/05 14:30:53;;;;;;;30.52;18.40;;;;;;;;;;5116865;28;20024;-73
2022/12/05 14:33:39;;;;;;;35.13;18.75;;;;;;;;;;5102240;28;20020;-75
2022/12/05 14:36:29;;;;;;;29.35;17.73;;;;;;;;;;5114466;28;20084;-74
2022/12/05 14:39:26;;;;;;;31.27;18.02;;;;;;;;;;5115588;28;20029;-76
2022/12/05 14:42:21;;;;;;;31.42;18.00;;;;;;;;;;5114157;28;20545;-73
2022/12/05 14:45:19;;;;;;;34.03;18.48;;;;;;;;;;5115203;28;20164;-74
2022/12/05 14:48:13;;;;;;;32.08;18.70;;;;;;;;;;5115023;28;20368;-74
2022/12/05 14:50:59;;;;;;;31.17;17.80;;;;;;;;;;5114059;28;20020;-73
2022/12/05 14:53:46;;;;;;;27.83;18.15;;;;;;;;;;5099683;28;20023;-73
2022/12/05 14:56:34;;;;;;;28.83;17.70;;;;;;;;;;5113947;28;20032;-73
2022/12/05 14:59:19;;;;;;;28.20;17.45;;;;;;;;;;5100093;28;20129;-74
2022/12/05 15:02:05;;;;;;;31.50;17.75;;;;;;;;;;5113932;28;20362;-77
2022/12/05 15:05:09;;;;;;;28.45;17.77;;;;;;;;;;5114912;28;20049;-72
2022/12/05 15:07:56;;;;;;;29.70;17.05;;;;;;;;;;5114010;28;20012;-74
2022/12/05 15:10:43;;;;;;;26.83;17.02;;;;;;;;;;5114962;28;20106;-75
2022/12/05 15:13:29;;;;;;;29.00;17.65;;;;;;;;;;5114140;28;20028;-74
2022/12/05 15:16:18;;;;;;;30.45;17.30;;;;;;;;;;5115585;28;20474;-74
2022/12/05 15:19:06;;;;;;;32.17;18.23;;;;;;;;;;5113463;28;20053;-73
2022/12/05 15:21:55;;;;;;;29.70;17.65;;;;;;;;;;5099101;28;20019;-75
2022/12/05 15:24:41;;;;;;;38.30;23.35;;;;;;;;;;5098572;28;20150;-73
2022/12/05 15:27:26;;;;;;;34.28;20.67;;;;;;;;;;5113802;28;20019;-75
2022/12/05 15:30:16;;;;;;;31.88;18.35;;;;;;;;;;5114562;28;20047;-74
2022/12/05 15:33:01;;;;;;;33.20;19.92;;;;;;;;;;5099547;28;20012;-74
2022/12/05 15:35:49;;;;;;;34.85;19.23;;;;;;;;;;5114383;28;20114;-74
2022/12/05 15:38:35;;;;;;;35.05;19.67;;;;;;;;;;5114657;28;20055;-73
2022/12/05 15:41:20;;;;;;;28.45;17.27;;;;;;;;;;5114453;28;20364;-74
2022/12/05 15:44:06;;;;;;;34.10;18.50;;;;;;;;;;5098168;28;20024;-74
2022/12/05 15:46:52;;;;;;;38.08;21.30;;;;;;;;;;5113723;28;20020;-73
2022/12/05 15:49:38;;;;;;;34.42;19.58;;;;;;;;;;5114474;28;20020;-74
2022/12/05 15:52:30;;;;;;;37.92;20.42;;;;;;;;;;5099340;28;20099;-74
2022/12/05 15:55:26;;;;;;;37.20;20.15;;;;;;;;;;5113533;28;20026;-72
2022/12/05 15:58:15;;;;;;;38.30;22.70;;;;;;;;;;5113273;28;20019;-73
2022/12/05 16:01:03;;;;;;;36.13;22.98;;;;;;;;;;5114034;28;20016;-73
2022/12/05 16:03:57;;;;;;;32.45;19.15;;;;;;;;;;5114076;28;20012;-72
2022/12/05 16:06:48;;;;;;;32.80;19.38;;;;;;;;;;5114719;28;20043;-72
2022/12/05 16:09:37;;;;;;;31.90;18.23;;;;;;;;;;5099858;28;20015;-72
2022/12/05 16:12:23;;;;;;;32.03;18.90;;;;;;;;;;5115166;28;20398;-74
2022/12/05 16:15:19;;;;;;;32.10;19.73;;;;;;;;;;5101106;28;20016;-72
2022/12/05 16:18:05;;;;;;;31.23;17.38;;;;;;;;;;5114788;28;20024;-73
2022/12/05 16:20:51;;;;;;;74.28;36.45;;;;;;;;;;5113957;28;20447;-73
2022/12/05 16:23:37;;;;;;;32.17;19.10;;;;;;;;;;5099919;28;20038;-73
2022/12/05 16:26:23;;;;;;;36.63;20.33;;;;;;;;;;5100798;28;20348;-73
2022/12/05 16:29:29;;;;;;;34.70;18.17;;;;;;;;;;5114746;28;20374;-74
2022/12/05 16:32:21;;;;;;;29.23;17.58;;;;;;;;;;5114020;28;20047;-73
2022/12/05 16:35:25;;;;;;;32.30;17.30;;;;;;;;;;5099965;28;20513;-72